Terminal Aerodrome Forecast
Issued by NWS Billings, MT

Home | Current Version | Previous Version | Text Only | Print | Product List | Glossary On
Versions: 1 2 3 4 5 6 7 8 9 10 11 12 13 14 15 16 17
000
FTUS45 KBYZ 211133
TAFSHR
TAF
KSHR 211133Z 2112/2212 14011G20KT P6SM BKN100 WS020/27045KT
     FM211600 23020G30KT P6SM BKN100
     FM211900 24030G45KT P6SM SCT150
     FM220100 27011KT P6SM BKN100=

USA.gov is the U.S. government's official web portal to all federal, state and local government web resources and services.